Time;durP1;ratioP1;P1;durP2;ratioP2;P2;SDS_P1;SDS_P2;PMS_P1;PMS_P2;Temp;Humidity;BMP_temperature;BMP_pressure;BME280_temperature;BME280_humidity;BME280_pressure;Samples;Min_cycle;Max_cycle;Signal;HPM_P1;HPM_P2
2021/11/09 00:00:14;;;;;;;23.63;8.77;;;;;;;5.06;88.99;102339.53;5001164;28;20032;-75
2021/11/09 00:02:42;;;;;;;26.15;9.40;;;;;;;5.05;89.36;102329.34;4986844;28;20050;-75
2021/11/09 00:05:11;;;;;;;23.98;9.23;;;;;;;5.00;89.47;102323.63;4986710;28;20028;-74
2021/11/09 00:07:43;;;;;;;29.30;9.20;;;;;;;4.95;89.35;102326.44;4982881;28;20122;-75
2021/11/09 00:10:09;;;;;;;29.33;9.93;;;;;;;4.94;89.76;102324.78;4974136;28;20036;-75
2021/11/09 00:12:39;;;;;;;30.08;8.35;;;;;;;4.93;89.55;102330.00;5019555;28;20170;-75
2021/11/09 00:15:08;;;;;;;26.58;8.70;;;;;;;4.93;89.61;102324.84;4926257;28;20042;-75
2021/11/09 00:17:34;;;;;;;28.38;9.10;;;;;;;4.93;90.05;102319.72;4982006;28;20118;-74
2021/11/09 00:20:00;;;;;;;23.67;8.27;;;;;;;4.91;89.55;102318.97;4925236;28;20034;-75
2021/11/09 00:22:26;;;;;;;24.77;8.93;;;;;;;4.89;89.28;102324.19;5000029;28;20032;-75
2021/11/09 00:24:53;;;;;;;32.80;9.10;;;;;;;4.84;89.44;102319.31;5012175;28;21481;-75
2021/11/09 00:27:20;;;;;;;27.05;8.48;;;;;;;4.78;89.40;102317.03;4925165;28;20535;-75
2021/11/09 00:29:46;;;;;;;25.38;9.00;;;;;;;4.75;89.28;102316.41;4987447;28;20071;-75
2021/11/09 00:32:12;;;;;;;28.67;9.20;;;;;;;4.71;89.37;102326.00;4999836;28;20126;-75
2021/11/09 00:34:38;;;;;;;26.50;9.88;;;;;;;4.68;89.66;102329.53;4999800;28;20403;-76
2021/11/09 00:37:05;;;;;;;28.77;10.73;;;;;;;4.69;89.67;102330.41;4924180;28;20027;-76
2021/11/09 00:39:30;;;;;;;23.98;9.98;;;;;;;4.68;89.76;102329.53;4970150;28;20090;-76
2021/11/09 00:41:56;;;;;;;26.13;9.48;;;;;;;4.67;89.68;102339.91;4927773;28;20118;-76
2021/11/09 00:44:23;;;;;;;23.75;8.70;;;;;;;4.64;89.79;102338.34;4925312;28;20050;-76
2021/11/09 00:46:49;;;;;;;27.17;9.57;;;;;;;4.63;89.87;102338.41;4923508;28;20039;-76
2021/11/09 00:49:16;;;;;;;25.13;8.63;;;;;;;4.62;90.22;102326.50;4930916;28;20156;-76
2021/11/09 00:51:43;;;;;;;30.95;9.00;;;;;;;4.62;89.70;102331.63;4975688;28;20549;-76
2021/11/09 00:54:09;;;;;;;34.88;11.25;;;;;;;4.61;89.81;102335.09;4995356;28;20036;-76
2021/11/09 00:56:34;;;;;;;26.15;9.82;;;;;;;4.57;89.60;102331.84;4986291;28;20062;-76
2021/11/09 00:59:01;;;;;;;24.63;8.90;;;;;;;4.54;89.22;102334.59;5011828;28;20040;-75
2021/11/09 01:01:26;;;;;;;20.80;8.02;;;;;;;4.49;89.41;102332.25;5009629;28;20036;-76
2021/11/09 01:03:52;;;;;;;26.50;9.50;;;;;;;4.46;88.88;102334.13;4942634;28;20230;-76
2021/11/09 01:06:18;;;;;;;22.17;8.57;;;;;;;4.46;88.74;102329.00;5008945;28;20514;-76
2021/11/09 01:08:43;;;;;;;29.52;8.80;;;;;;;4.45;88.79;102333.31;5006816;28;20043;-76
2021/11/09 01:11:09;;;;;;;26.15;9.07;;;;;;;4.41;88.60;102328.44;4952404;28;20119;-77
2021/11/09 01:13:35;;;;;;;25.98;9.68;;;;;;;4.39;88.89;102335.34;4944377;28;20086;-75
2021/11/09 01:16:01;;;;;;;27.55;9.55;;;;;;;4.36;88.34;102330.41;4927155;28;20043;-76
2021/11/09 01:18:37;;;;;;;34.10;9.48;;;;;;;4.35;88.68;102334.72;4940367;28;20031;-76
2021/11/09 01:21:03;;;;;;;23.23;8.90;;;;;;;4.32;88.64;102331.47;5010937;28;20046;-76
2021/11/09 01:23:29;;;;;;;23.38;9.18;;;;;;;4.31;88.49;102327.22;5009459;28;20035;-76
2021/11/09 01:25:54;;;;;;;27.95;10.20;;;;;;;4.28;88.70;102331.59;5011305;28;20030;-76
2021/11/09 01:28:20;;;;;;;20.38;9.63;;;;;;;4.27;88.79;102322.22;4928111;28;20443;-76
2021/11/09 01:30:47;;;;;;;27.23;9.80;;;;;;;4.28;88.76;102320.50;5000251;28;20509;-76
2021/11/09 01:33:14;;;;;;;32.28;9.45;;;;;;;4.27;88.72;102316.28;5010286;28;21336;-76
2021/11/09 01:35:40;;;;;;;34.10;9.90;;;;;;;4.24;88.44;102313.88;4923773;28;20027;-76
2021/11/09 01:38:05;;;;;;;27.15;9.18;;;;;;;4.20;88.63;102313.19;4925995;28;20081;-76
2021/11/09 01:40:32;;;;;;;26.20;10.00;;;;;;;4.15;88.70;102307.47;5026360;28;20031;-76
2021/11/09 01:42:59;;;;;;;28.65;8.18;;;;;;;4.13;89.03;102306.72;4979795;28;20562;-74
2021/11/09 01:45:26;;;;;;;34.85;7.90;;;;;;;4.09;89.36;102300.88;5004617;28;20036;-75
2021/11/09 01:47:52;;;;;;;21.58;7.43;;;;;;;4.09;89.54;102310.34;5008345;28;20039;-75
2021/11/09 01:50:22;;;;;;;25.30;7.63;;;;;;;4.09;89.58;102318.88;5021319;28;20028;-75
2021/11/09 01:52:48;;;;;;;21.73;8.48;;;;;;;4.08;89.81;102324.06;5009619;28;20118;-76
2021/11/09 01:55:16;;;;;;;35.67;9.20;;;;;;;4.07;90.26;102323.25;5021427;28;20092;-75
2021/11/09 01:57:42;;;;;;;29.38;8.43;;;;;;;4.08;90.00;102330.03;5005674;28;20119;-76
2021/11/09 02:00:15;;;;;;;24.58;7.53;;;;;;;4.09;89.81;102321.44;5021856;28;20146;-76
2021/11/09 02:02:44;;;;;;;22.98;9.35;;;;;;;4.07;89.82;102327.56;4987812;28;20044;-76
2021/11/09 02:05:11;;;;;;;21.38;7.80;;;;;;;4.03;89.93;102326.88;5005973;28;20366;-75
2021/11/09 02:07:49;;;;;;;29.40;8.45;;;;;;;4.01;90.00;102336.41;4996210;28;20065;-76
2021/11/09 02:10:16;;;;;;;27.73;8.77;;;;;;;3.97;89.95;102341.75;4953817;28;20118;-75
2021/11/09 02:12:42;;;;;;;24.83;8.02;;;;;;;3.97;89.81;102352.81;4984656;28;20090;-76
2021/11/09 02:15:08;;;;;;;22.60;7.65;;;;;;;3.95;90.04;102349.50;4968606;28;20032;-75
2021/11/09 02:17:39;;;;;;;30.15;8.52;;;;;;;3.95;90.59;102348.69;4989459;28;20043;-75
2021/11/09 02:20:07;;;;;;;22.30;7.75;;;;;;;3.92;90.14;102352.25;5020953;28;20544;-76
2021/11/09 02:22:34;;;;;;;19.58;6.93;;;;;;;3.92;90.13;102349.69;4932054;28;20036;-75
2021/11/09 02:25:03;;;;;;;26.48;7.82;;;;;;;3.92;90.30;102353.97;5033674;28;20504;-76
2021/11/09 02:27:29;;;;;;;28.77;7.35;;;;;;;3.92;90.32;102354.81;4924462;28;20090;-76
2021/11/09 02:29:55;;;;;;;20.63;7.55;;;;;;;3.90;89.95;102362.59;5000147;28;20543;-75
2021/11/09 02:32:20;;;;;;;17.45;7.20;;;;;;;3.89;89.30;102358.34;5007714;28;20041;-75
2021/11/09 02:34:46;;;;;;;28.13;7.90;;;;;;;3.84;89.09;102351.75;4987519;28;20410;-76
2021/11/09 02:37:11;;;;;;;20.55;7.55;;;;;;;3.76;89.20;102353.88;4986136;28;20096;-76
2021/11/09 02:39:37;;;;;;;31.70;7.65;;;;;;;3.68;89.06;102351.69;5004565;28;20121;-75
2021/11/09 02:42:09;;;;;;;27.20;7.85;;;;;;;3.62;88.92;102354.56;5009589;28;20030;-76
2021/11/09 02:44:34;;;;;;;22.50;7.65;;;;;;;3.61;89.09;102360.56;4999856;28;20506;-76
2021/11/09 02:47:04;;;;;;;26.30;7.40;;;;;;;3.60;89.48;102361.47;4941496;28;20084;-76
2021/11/09 02:49:42;;;;;;;18.10;6.93;;;;;;;3.59;90.01;102358.06;4972637;28;20033;-75
2021/11/09 02:52:08;;;;;;;25.38;7.32;;;;;;;3.57;89.66;102356.50;4999507;28;20480;-75
2021/11/09 02:54:38;;;;;;;21.02;6.65;;;;;;;3.54;89.57;102360.00;4941448;28;20039;-75
2021/11/09 02:57:16;;;;;;;20.58;6.78;;;;;;;3.48;89.67;102350.91;5012877;28;20256;-75
2021/11/09 03:02:44;;;;;;;19.10;6.65;;;;;;;3.46;89.57;102349.28;4930197;28;20131;-75
2021/11/09 03:05:27;;;;;;;24.73;7.53;;;;;;;3.45;89.17;102357.91;4937665;28;20046;-75
2021/11/09 03:07:57;;;;;;;18.17;7.18;;;;;;;3.43;89.16;102354.59;5021772;28;20039;-75
2021/11/09 03:10:47;;;;;;;20.15;6.55;;;;;;;3.42;89.35;102353.72;4995424;28;20068;-75
2021/11/09 03:13:10;;;;;;;19.80;7.10;;;;;;;3.41;89.32;102357.22;4997667;28;20208;-75
2021/11/09 03:15:35;;;;;;;24.27;6.50;;;;;;;3.38;89.02;102354.78;5003335;28;20089;-75
2021/11/09 03:20:41;;;;;;;19.10;7.35;;;;;;;3.31;88.73;102358.53;5025920;28;20038;-75
2021/11/09 03:47:27;;;;;;;22.40;7.03;;;;;;;3.05;89.11;102373.38;4988856;28;20036;-75
2021/11/09 03:49:54;;;;;;;23.95;7.25;;;;;;;3.06;88.69;102376.75;5023383;28;20385;-75
2021/11/09 03:52:24;;;;;;;19.45;6.90;;;;;;;3.00;88.90;102374.47;4998305;28;20071;-75
2021/11/09 03:54:56;;;;;;;23.17;7.90;;;;;;;2.97;88.08;102375.44;4968298;28;20111;-75
2021/11/09 03:57:34;;;;;;;29.00;8.10;;;;;;;2.94;88.52;102367.91;5023697;28;20036;-74
2021/11/09 04:05:15;;;;;;;21.92;6.93;;;;;;;2.88;89.74;102370.72;5006889;28;20279;-75
2021/11/09 05:10:46;;;;;;;44.45;11.02;;;;;;;2.66;90.38;102383.63;5008295;28;20546;-76
2021/11/09 05:13:12;;;;;;;36.20;10.35;;;;;;;2.63;90.56;102391.44;5026965;28;20042;-75
2021/11/09 05:15:38;;;;;;;30.25;10.55;;;;;;;2.61;90.44;102390.69;4989221;28;20058;-75
2021/11/09 05:18:03;;;;;;;27.75;8.82;;;;;;;2.60;91.06;102392.41;5011393;28;20554;-75
2021/11/09 05:20:32;;;;;;;23.85;9.50;;;;;;;2.61;90.95;102398.38;4971396;28;20032;-75
2021/11/09 05:22:58;;;;;;;29.83;9.55;;;;;;;2.61;91.27;102395.81;5009712;28;20038;-75
2021/11/09 05:25:25;;;;;;;26.52;10.13;;;;;;;2.60;91.26;102407.78;4999998;28;20382;-75
2021/11/09 05:27:51;;;;;;;27.63;10.07;;;;;;;2.60;90.97;102405.22;4939732;28;20385;-75
2021/11/09 05:30:17;;;;;;;31.27;10.85;;;;;;;2.61;91.04;102411.16;4942330;28;20035;-75
2021/11/09 05:32:43;;;;;;;29.20;9.65;;;;;;;2.55;91.01;102412.25;5002888;28;20119;-75
2021/11/09 05:35:10;;;;;;;30.30;10.30;;;;;;;2.55;90.99;102411.44;4928859;28;20162;-75
2021/11/09 05:37:40;;;;;;;29.05;10.15;;;;;;;2.55;91.16;102407.13;5008902;28;20044;-75
2021/11/09 05:40:07;;;;;;;38.35;9.90;;;;;;;2.55;91.20;102403.75;4997360;28;20156;-75
2021/11/09 05:42:33;;;;;;;23.02;8.68;;;;;;;2.56;91.04;102405.41;4984539;28;20067;-75
2021/11/09 05:44:59;;;;;;;26.73;9.63;;;;;;;2.57;90.94;102412.19;4957659;28;20043;-75
2021/11/09 05:47:24;;;;;;;29.98;8.98;;;;;;;2.56;90.84;102413.09;5026728;28;20027;-75
2021/11/09 05:49:50;;;;;;;25.30;9.48;;;;;;;2.56;90.98;102411.34;4943420;28;20225;-75
2021/11/09 05:52:16;;;;;;;28.65;9.55;;;;;;;2.55;90.74;102421.69;5019479;28;20093;-75
2021/11/09 05:54:42;;;;;;;24.90;10.68;;;;;;;2.61;89.76;102422.25;5001553;28;20031;-75
2021/11/09 05:57:08;;;;;;;33.90;17.35;;;;;;;2.50;89.73;102427.81;4980650;28;20481;-75
2021/11/09 05:59:34;;;;;;;44.72;23.25;;;;;;;2.46;90.20;102422.88;5000524;28;20075;-75
2021/11/09 06:02:00;;;;;;;62.17;30.98;;;;;;;2.45;90.55;102432.31;4944482;28;20550;-75
2021/11/09 06:04:26;;;;;;;71.95;38.60;;;;;;;2.44;90.69;102437.47;4989240;28;20404;-74
2021/11/09 06:06:52;;;;;;;65.85;30.90;;;;;;;2.44;90.74;102440.03;4985739;28;20038;-75
2021/11/09 06:09:17;;;;;;;46.53;22.88;;;;;;;2.44;91.21;102445.16;5012359;28;20256;-74
2021/11/09 06:11:43;;;;;;;59.75;23.38;;;;;;;2.41;90.94;102441.00;5001610;28;20045;-75
2021/11/09 06:14:08;;;;;;;60.58;23.80;;;;;;;2.44;90.79;102440.03;4994769;28;20701;-75
2021/11/09 06:16:35;;;;;;;40.33;16.25;;;;;;;2.39;90.83;102447.06;5009478;28;20032;-75
2021/11/09 06:19:00;;;;;;;41.97;15.52;;;;;;;2.36;91.24;102448.03;4934050;28;20047;-75
2021/11/09 06:21:26;;;;;;;42.70;16.17;;;;;;;2.36;91.23;102453.16;4941898;28;20070;-74
2021/11/09 06:23:52;;;;;;;39.30;15.75;;;;;;;2.37;91.04;102454.00;5001264;28;20484;-75
2021/11/09 06:26:18;;;;;;;38.92;14.63;;;;;;;2.36;91.11;102454.91;5011255;28;20032;-75
2021/11/09 06:28:43;;;;;;;33.42;12.43;;;;;;;2.36;91.08;102450.59;5023546;28;20036;-75
2021/11/09 06:31:09;;;;;;;33.03;13.05;;;;;;;2.36;91.16;102453.16;4938492;28;20028;-74
2021/11/09 06:33:36;;;;;;;39.20;11.75;;;;;;;2.33;91.04;102450.72;4997464;28;20055;-75
2021/11/09 06:36:02;;;;;;;31.73;13.23;;;;;;;2.30;90.82;102454.25;4969841;28;20089;-74
2021/11/09 06:38:28;;;;;;;33.10;10.07;;;;;;;2.28;91.16;102452.63;4939854;28;20032;-74
2021/11/09 06:40:53;;;;;;;27.65;11.68;;;;;;;2.25;91.23;102458.72;4985170;28;20074;-75
2021/11/09 06:43:19;;;;;;;27.67;10.68;;;;;;;2.26;91.26;102467.22;4986383;28;20031;-74
2021/11/09 06:45:45;;;;;;;26.38;10.57;;;;;;;2.25;91.16;102468.13;4940056;28;20063;-74
2021/11/09 06:48:11;;;;;;;32.22;10.77;;;;;;;2.23;91.47;102472.47;4963081;28;20386;-75
2021/11/09 06:50:37;;;;;;;30.98;10.45;;;;;;;2.23;91.37;102475.84;5000611;28;20098;-74
2021/11/09 06:53:03;;;;;;;30.55;9.98;;;;;;;2.25;91.42;102484.31;5010349;28;20064;-75
2021/11/09 06:55:28;;;;;;;26.58;8.90;;;;;;;2.28;91.51;102485.91;5015567;28;20283;-74
2021/11/09 06:57:54;;;;;;;27.70;7.90;;;;;;;2.29;91.35;102492.69;4999144;28;20120;-74
2021/11/09 07:00:23;;;;;;;24.63;9.48;;;;;;;2.31;91.15;102483.22;5026334;28;20032;-75
2021/11/09 07:02:49;;;;;;;31.83;9.25;;;;;;;2.31;91.03;102488.34;4950448;28;20108;-74
2021/11/09 07:05:17;;;;;;;33.72;10.93;;;;;;;2.33;90.51;102489.13;5019428;28;20396;-75
2021/11/09 07:07:43;;;;;;;29.40;9.68;;;;;;;2.29;90.46;102490.13;4966091;28;20040;-75
2021/11/09 07:10:08;;;;;;;32.08;8.48;;;;;;;2.24;90.51;102495.47;5017583;28;20034;-75
2021/11/09 07:12:35;;;;;;;24.67;8.40;;;;;;;2.23;90.79;102500.63;5018640;28;20031;-74
2021/11/09 07:15:00;;;;;;;21.10;8.02;;;;;;;2.24;90.72;102505.69;5007644;28;20090;-74
2021/11/09 07:17:26;;;;;;;26.75;9.20;;;;;;;2.28;90.98;102501.25;5008248;28;20025;-74
2021/11/09 07:19:52;;;;;;;26.48;8.65;;;;;;;2.32;90.86;102505.41;4943240;28;20046;-74
2021/11/09 07:22:19;;;;;;;26.70;8.50;;;;;;;2.33;90.93;102504.47;4931558;28;20063;-74
2021/11/09 07:24:46;;;;;;;33.78;10.52;;;;;;;2.35;90.62;102505.25;4995120;28;20047;-74
2021/11/09 07:27:12;;;;;;;33.78;13.27;;;;;;;2.35;90.74;102502.69;4992118;28;20162;-75
2021/11/09 07:29:44;;;;;;;29.75;11.40;;;;;;;2.38;91.08;102507.69;5008781;28;20059;-75
2021/11/09 07:32:09;;;;;;;27.60;10.65;;;;;;;2.41;90.77;102505.03;5008477;28;20067;-75
2021/11/09 07:34:35;;;;;;;27.70;9.35;;;;;;;2.46;91.17;102509.94;5024085;28;20043;-74
2021/11/09 07:37:00;;;;;;;23.95;9.07;;;;;;;2.49;91.13;102507.28;5004355;28;20042;-75
2021/11/09 07:39:25;;;;;;;21.27;8.02;;;;;;;2.53;91.25;102504.53;4993751;28;20043;-75
2021/11/09 07:41:51;;;;;;;31.02;8.55;;;;;;;2.58;91.42;102513.75;5022351;28;20044;-75
2021/11/09 07:44:17;;;;;;;24.10;7.68;;;;;;;2.60;91.71;102511.94;4938069;28;20021;-75
2021/11/09 07:46:44;;;;;;;23.73;8.32;;;;;;;2.62;91.88;102510.16;5001314;28;20474;-75
2021/11/09 07:49:09;;;;;;;30.52;9.95;;;;;;;2.65;92.34;102504.91;4994420;28;20024;-74
2021/11/09 07:51:35;;;;;;;26.08;9.10;;;;;;;2.68;92.43;102505.63;4990999;28;20040;-75
2021/11/09 07:54:01;;;;;;;30.13;9.95;;;;;;;2.71;92.67;102505.50;5001768;28;20048;-75
2021/11/09 07:56:36;;;;;;;41.80;15.90;;;;;;;2.77;93.01;102511.25;4977533;28;20085;-75
2021/11/09 08:04:29;;;;;;;33.45;10.57;;;;;;;3.04;93.83;102507.53;5012313;28;20043;-75
2021/11/09 08:07:50;;;;;;;39.38;11.48;;;;;;;3.08;94.04;102503.94;4989057;28;20458;-75
2021/11/09 08:09:40;;;;;;;35.00;10.20;;;;;;;3.08;94.39;102511.63;4982459;28;20040;-74
2021/11/09 08:12:07;;;;;;;32.60;10.32;;;;;;;3.12;94.44;102507.22;5025490;28;20469;-74
2021/11/09 08:14:33;;;;;;;44.03;11.85;;;;;;;3.30;94.24;102508.16;5002741;28;20039;-75
2021/11/09 08:16:59;;;;;;;42.25;11.88;;;;;;;3.54;94.10;102501.09;4994793;28;20039;-75
2021/11/09 08:19:25;;;;;;;34.15;10.77;;;;;;;3.76;93.77;102495.84;4928488;28;20044;-75
2021/11/09 08:21:54;;;;;;;48.50;11.27;;;;;;;4.05;92.87;102509.06;4927995;28;20281;-75
2021/11/09 08:24:20;;;;;;;33.17;10.50;;;;;;;4.42;92.09;102500.44;4988645;28;20046;-75
2021/11/09 08:26:48;;;;;;;42.40;10.60;;;;;;;4.75;90.44;102499.69;5010432;28;20043;-76
2021/11/09 08:29:15;;;;;;;34.90;10.95;;;;;;;5.09;88.98;102492.84;5002793;28;20484;-75
2021/11/09 08:31:44;;;;;;;49.33;11.07;;;;;;;5.43;87.25;102496.25;5026324;28;20028;-76
2021/11/09 08:34:10;;;;;;;39.60;9.43;;;;;;;5.81;85.92;102501.06;4944157;28;20040;-76
2021/11/09 08:36:36;;;;;;;29.75;8.82;;;;;;;6.06;84.80;102508.31;4939759;28;20417;-75
2021/11/09 08:39:05;;;;;;;41.15;9.13;;;;;;;6.31;82.27;102505.22;4986279;28;20048;-76
2021/11/09 08:42:01;;;;;;;33.72;10.18;;;;;;;6.43;81.78;102501.94;5003514;28;20032;-76
2021/11/09 08:44:22;;;;;;;41.92;9.40;;;;;;;6.49;80.35;102500.75;4955389;28;20539;-76
2021/11/09 08:46:51;;;;;;;39.00;10.07;;;;;;;6.59;80.11;102501.88;5001655;28;20040;-76
2021/11/09 08:49:19;;;;;;;40.13;10.70;;;;;;;6.49;80.35;102505.91;4934627;28;20037;-76
2021/11/09 08:51:50;;;;;;;41.03;11.43;;;;;;;6.52;80.57;102502.34;5006696;28;20054;-76
2021/11/09 08:57:13;;;;;;;54.45;19.58;;;;;;;6.21;81.54;102507.44;5015943;28;20436;-76
2021/11/09 09:05:24;;;;;;;63.92;23.08;;;;;;;5.95;83.92;102502.88;4982872;28;20051;-76
2021/11/09 09:07:49;;;;;;;56.90;21.00;;;;;;;5.93;84.24;102505.53;4927346;28;20589;-78
2021/11/09 09:10:15;;;;;;;47.15;13.50;;;;;;;5.87;84.87;102510.22;5010174;28;20132;-76
2021/11/09 09:12:41;;;;;;;33.85;10.73;;;;;;;6.00;84.81;102509.47;4991849;28;20043;-77
2021/11/09 09:15:10;;;;;;;71.10;29.33;;;;;;;5.97;84.50;102511.38;4927118;28;20554;-76
2021/11/09 09:17:37;;;;;;;30.80;10.02;;;;;;;6.02;83.92;102509.41;4996431;28;20455;-77
2021/11/09 09:20:14;;;;;;;50.72;17.15;;;;;;;6.09;83.54;102509.91;4991810;28;20036;-78
2021/11/09 09:23:28;;;;;;;47.35;14.05;;;;;;;5.99;84.48;102509.56;4984099;28;20179;-76
2021/11/09 09:57:08;;;;;;;23.20;7.97;;;;;;;7.09;78.70;102522.22;4922315;28;20040;-77
2021/11/09 09:59:37;;;;;;;30.45;8.20;;;;;;;7.06;78.23;102530.13;4959940;28;20035;-77
2021/11/09 10:02:11;;;;;;;41.28;9.48;;;;;;;7.13;77.77;102527.09;5006061;28;20063;-79
2021/11/09 10:04:48;;;;;;;46.58;8.65;;;;;;;7.20;77.67;102527.56;4938415;28;20122;-77
2021/11/09 10:07:29;;;;;;;30.42;7.57;;;;;;;7.24;76.61;102526.47;5022214;28;20493;-79
2021/11/09 10:09:54;;;;;;;30.73;7.47;;;;;;;7.33;76.26;102528.50;5007673;28;20081;-78
2021/11/09 10:12:22;;;;;;;33.88;7.47;;;;;;;7.49;75.33;102527.56;5025519;28;20475;-76
2021/11/09 10:14:50;;;;;;;20.63;5.93;;;;;;;7.56;74.96;102526.28;5020390;28;20276;-78
2021/11/09 10:17:21;;;;;;;20.13;6.72;;;;;;;7.52;76.04;102524.81;5010360;28;20089;-77
2021/11/09 10:19:48;;;;;;;26.65;6.45;;;;;;;7.66;75.43;102517.03;5007194;28;20042;-77
2021/11/09 10:22:22;;;;;;;31.13;6.53;;;;;;;7.82;76.52;102523.81;4988472;28;20486;-78
2021/11/09 10:24:57;;;;;;;26.15;7.22;;;;;;;7.84;75.61;102525.38;5006211;28;20154;-78
2021/11/09 10:27:24;;;;;;;26.77;7.40;;;;;;;7.96;74.62;102526.38;5009176;28;20381;-77
2021/11/09 10:29:52;;;;;;;28.30;6.63;;;;;;;8.02;74.47;102522.56;4927089;28;20028;-77
2021/11/09 10:32:27;;;;;;;26.55;6.57;;;;;;;8.10;75.19;102523.75;4936530;28;20082;-79
2021/11/09 10:34:56;;;;;;;24.83;7.95;;;;;;;8.06;74.80;102517.13;4989409;28;20036;-79
2021/11/09 10:37:27;;;;;;;30.10;7.35;;;;;;;8.17;74.19;102524.16;5012716;28;20074;-77
2021/11/09 10:39:55;;;;;;;27.70;7.40;;;;;;;8.16;72.78;102519.94;5002861;28;20113;-78
2021/11/09 10:42:23;;;;;;;29.30;6.28;;;;;;;8.30;71.95;102525.03;4994179;28;20728;-75
2021/11/09 10:44:53;;;;;;;19.75;6.25;;;;;;;8.29;72.62;102520.00;4990779;28;20044;-78
2021/11/09 10:47:26;;;;;;;26.95;5.47;;;;;;;8.30;72.02;102514.69;5005404;28;20477;-77
2021/11/09 10:50:06;;;;;;;24.13;6.03;;;;;;;8.17;72.76;102511.25;4988727;28;20035;-77
2021/11/09 10:52:36;;;;;;;17.55;5.80;;;;;;;8.20;72.88;102516.22;5000248;28;20355;-78
2021/11/09 10:58:16;;;;;;;15.93;5.07;;;;;;;8.52;71.07;102513.34;5002362;28;20036;-78
2021/11/09 11:06:09;;;;;;;18.45;5.70;;;;;;;8.56;72.24;102507.03;4968443;28;20065;-79
2021/11/09 11:08:35;;;;;;;20.80;5.60;;;;;;;8.69;71.06;102494.94;5019207;28;20094;-78
2021/11/09 11:11:31;;;;;;;18.58;4.97;;;;;;;8.71;71.21;102503.44;4987082;28;20493;-78
2021/11/09 11:14:10;;;;;;;20.95;5.13;;;;;;;8.74;71.11;102503.25;4922606;28;20086;-78
2021/11/09 11:16:55;;;;;;;19.00;5.10;;;;;;;8.71;71.29;102498.25;5003070;28;20110;-78
2021/11/09 11:19:37;;;;;;;14.65;5.63;;;;;;;8.80;71.34;102495.97;5010662;28;20127;-79
2021/11/09 11:22:05;;;;;;;13.23;5.13;;;;;;;8.69;72.16;102500.13;5000213;28;20047;-78
2021/11/09 11:24:32;;;;;;;17.05;4.40;;;;;;;8.73;72.04;102482.66;4983989;28;20052;-78
2021/11/09 11:26:59;;;;;;;16.98;4.63;;;;;;;8.80;70.83;102485.63;4999842;28;20130;-78
2021/11/09 11:29:28;;;;;;;15.50;4.53;;;;;;;8.88;69.96;102486.78;4927971;28;20050;-78
2021/11/09 11:31:56;;;;;;;23.25;4.32;;;;;;;8.84;68.46;102479.34;4997163;28;20443;-77
2021/11/09 11:34:24;;;;;;;16.25;4.03;;;;;;;8.73;68.95;102483.47;5015750;28;20437;-79
2021/11/09 11:36:50;;;;;;;12.65;3.95;;;;;;;8.84;68.97;102479.34;5023142;28;20047;-76
2021/11/09 11:39:18;;;;;;;21.42;5.68;;;;;;;9.23;65.50;102474.94;5009987;28;20028;-78
2021/11/09 11:41:46;;;;;;;19.00;4.95;;;;;;;9.43;65.67;102471.78;4984705;28;20039;-79
2021/11/09 11:44:21;;;;;;;20.08;4.70;;;;;;;9.23;67.30;102467.19;5004418;28;20048;-77
2021/11/09 11:46:48;;;;;;;16.63;5.75;;;;;;;9.13;68.97;102467.00;5005855;28;20042;-78
2021/11/09 11:49:22;;;;;;;16.30;3.72;;;;;;;9.15;67.50;102458.22;5007122;28;20215;-76
2021/11/09 11:51:48;;;;;;;15.43;4.22;;;;;;;9.50;65.10;102461.84;4995515;28;20479;-78
2021/11/09 11:54:17;;;;;;;18.65;3.58;;;;;;;9.30;65.50;102458.88;4990934;28;20123;-77
2021/11/09 11:56:45;;;;;;;13.60;3.47;;;;;;;9.25;66.56;102453.22;5008150;28;20093;-79
2021/11/09 11:59:23;;;;;;;16.27;4.18;;;;;;;9.38;64.78;102453.19;5000486;28;20089;-78
2021/11/09 12:01:54;;;;;;;22.15;4.38;;;;;;;9.35;65.24;102453.41;4948176;28;20305;-80
2021/11/09 12:04:47;;;;;;;14.63;3.20;;;;;;;9.34;64.46;102449.13;5005534;28;20039;-79
2021/11/09 12:07:17;;;;;;;16.80;3.40;;;;;;;9.48;65.80;102437.81;5009299;28;20122;-75
2021/11/09 12:09:47;;;;;;;8.70;3.40;;;;;;;9.38;65.58;102439.38;4991746;28;20557;-79
2021/11/09 12:12:20;;;;;;;15.02;3.53;;;;;;;9.63;64.40;102433.31;4973117;28;20037;-77
2021/11/09 12:14:47;;;;;;;13.10;3.85;;;;;;;9.57;65.66;102432.00;5016274;28;20045;-77
2021/11/09 12:17:40;;;;;;;14.32;3.65;;;;;;;9.66;64.88;102430.50;4981067;28;20442;-77
2021/11/09 12:20:09;;;;;;;19.02;3.75;;;;;;;9.74;63.76;102431.59;5004812;28;20552;-78
2021/11/09 12:22:51;;;;;;;16.23;3.83;;;;;;;9.68;64.81;102426.03;4998869;28;20048;-77
2021/11/09 12:25:32;;;;;;;20.10;2.97;;;;;;;9.97;62.66;102430.88;5007787;28;20572;-77
2021/11/09 12:28:01;;;;;;;13.95;3.50;;;;;;;9.94;62.71;102414.63;5014437;28;20027;-78
2021/11/09 12:30:36;;;;;;;12.07;3.42;;;;;;;10.02;62.14;102415.78;5014265;28;20032;-78
2021/11/09 12:33:11;;;;;;;15.65;3.67;;;;;;;9.91;63.03;102412.25;5007408;28;20040;-76
2021/11/09 12:35:38;;;;;;;14.35;3.45;;;;;;;10.07;62.21;102417.09;5003163;28;20043;-77
2021/11/09 12:38:14;;;;;;;12.80;3.75;;;;;;;9.93;62.98;102410.38;5007141;28;20404;-78
2021/11/09 12:40:50;;;;;;;11.73;3.15;;;;;;;9.93;63.81;102410.38;4983592;28;20032;-78
2021/11/09 12:43:30;;;;;;;14.45;2.50;;;;;;;10.03;62.57;102410.50;5014452;28;20032;-78
2021/11/09 12:46:38;;;;;;;13.15;2.47;;;;;;;9.76;63.39;102403.00;5010452;28;20547;-79
2021/11/09 12:49:13;;;;;;;15.50;3.75;;;;;;;9.74;63.60;102410.88;4991176;28;20044;-78
2021/11/09 12:51:42;;;;;;;16.15;3.88;;;;;;;9.80;61.55;102404.44;5019058;28;20485;-78
2021/11/09 12:54:10;;;;;;;15.13;3.05;;;;;;;10.13;60.46;102405.47;4994920;28;20042;-79
2021/11/09 12:56:52;;;;;;;12.32;2.97;;;;;;;9.99;61.90;102400.50;5010800;28;20043;-78
2021/11/09 12:59:29;;;;;;;18.52;2.33;;;;;;;10.08;61.00;102392.03;4997768;28;20484;-79
2021/11/09 13:02:07;;;;;;;13.65;4.95;;;;;;;9.91;63.08;102382.91;4972148;28;20633;-79
2021/11/09 13:09:47;;;;;;;10.50;2.83;;;;;;;9.84;62.21;102382.53;4928279;28;19929;-78
2021/11/09 13:12:19;;;;;;;10.95;2.60;;;;;;;9.83;61.34;102378.31;5037486;28;20044;-78
2021/11/09 13:14:48;;;;;;;13.15;2.90;;;;;;;9.88;59.88;102381.38;4993000;28;20464;-78
2021/11/09 13:17:24;;;;;;;12.25;2.78;;;;;;;9.79;60.66;102376.03;4959871;28;20036;-78
2021/11/09 13:20:04;;;;;;;17.05;2.78;;;;;;;9.81;62.35;102382.75;5010452;28;20405;-78
2021/11/09 13:22:30;;;;;;;12.73;2.70;;;;;;;9.87;61.71;102384.06;4991372;28;20135;-78
2021/11/09 13:25:07;;;;;;;6.05;2.63;;;;;;;9.84;62.04;102374.75;4995539;28;20676;-77
2021/11/09 13:27:50;;;;;;;10.98;2.53;;;;;;;9.88;60.54;102376.19;5010485;28;20028;-80
2021/11/09 13:30:22;;;;;;;13.60;2.33;;;;;;;9.75;61.29;102378.03;5013555;28;20035;-78
2021/11/09 13:32:54;;;;;;;15.65;2.67;;;;;;;9.81;62.21;102380.16;4995554;28;20320;-78
2021/11/09 13:35:26;;;;;;;9.32;2.30;;;;;;;9.74;62.80;102372.03;5011818;28;20078;-78
2021/11/09 13:38:29;;;;;;;12.60;2.90;;;;;;;9.74;62.80;102379.78;5014094;28;20050;-80
2021/11/09 13:40:57;;;;;;;12.98;2.53;;;;;;;9.77;62.55;102377.91;4980724;28;20058;-78
2021/11/09 13:43:35;;;;;;;9.55;2.47;;;;;;;9.74;62.99;102377.19;5010637;28;20040;-79
2021/11/09 13:46:04;;;;;;;17.40;4.75;;;;;;;10.00;62.21;102371.88;4993057;28;20570;-77
2021/11/09 13:48:32;;;;;;;16.20;3.55;;;;;;;10.05;62.77;102366.34;5010537;28;20118;-79
2021/11/09 13:51:04;;;;;;;16.13;2.60;;;;;;;10.03;63.10;102363.03;5007959;28;20042;-79
2021/11/09 13:53:40;;;;;;;16.47;3.43;;;;;;;10.00;63.32;102368.44;5011651;28;20586;-79
2021/11/09 13:56:12;;;;;;;13.98;2.95;;;;;;;9.93;63.37;102361.13;5010481;28;20622;-78
2021/11/09 13:58:38;;;;;;;9.13;2.45;;;;;;;9.89;63.94;102367.47;4990580;28;20090;-79
2021/11/09 14:01:04;;;;;;;10.98;3.47;;;;;;;9.80;63.54;102370.75;4995187;28;20030;-78
2021/11/09 14:09:16;;;;;;;16.70;3.15;;;;;;;9.89;64.82;102359.72;5012199;28;20043;-78
2021/11/09 14:16:59;;;;;;;14.27;2.85;;;;;;;9.97;63.97;102358.31;4933205;28;20465;-77
2021/11/09 14:19:33;;;;;;;10.43;4.65;;;;;;;10.08;62.40;102356.56;4994777;28;20038;-77
2021/11/09 14:22:11;;;;;;;12.95;2.97;;;;;;;10.07;62.70;102356.69;5012331;28;20547;-79